Time;durP1;ratioP1;P1;durP2;ratioP2;P2;SDS_P1;SDS_P2;PMS_P1;PMS_P2;Temp;Humidity;BMP_temperature;BMP_pressure;BME280_temperature;BME280_humidity;BME280_pressure;Samples;Min_cycle;Max_cycle;Signal;HPM_P1;HPM_P2
2021/10/15 00:01:58;;;;;;;15.15;9.25;;;13.20;90.10;;;;;;5074893;28;20476;-75
2021/10/15 00:04:23;;;;;;;14.68;8.65;;;13.10;90.10;;;;;;5074711;28;20039;-75
2021/10/15 00:06:49;;;;;;;15.45;9.18;;;13.20;90.00;;;;;;5074842;28;20377;-75
2021/10/15 00:09:15;;;;;;;14.50;9.23;;;13.10;90.10;;;;;;5074526;28;20166;-76
2021/10/15 00:11:40;;;;;;;16.73;8.98;;;13.10;90.10;;;;;;5056430;28;20025;-76
2021/10/15 00:14:06;;;;;;;11.18;6.15;;;13.10;90.10;;;;;;5074330;28;20125;-76
2021/10/15 00:16:32;;;;;;;10.80;6.63;;;13.10;90.20;;;;;;5074424;28;20020;-76
2021/10/15 00:18:57;;;;;;;14.63;10.20;;;13.10;90.10;;;;;;5056507;28;20086;-76
2021/10/15 00:21:23;;;;;;;15.30;9.82;;;13.10;90.20;;;;;;5074929;28;20068;-76
2021/10/15 00:23:48;;;;;;;13.75;8.43;;;13.00;90.20;;;;;;5056595;28;20024;-76
2021/10/15 00:26:14;;;;;;;14.95;10.20;;;13.10;90.20;;;;;;5058622;28;20050;-76
2021/10/15 00:28:40;;;;;;;15.35;9.45;;;13.00;90.30;;;;;;5055979;28;20455;-76
2021/10/15 00:31:05;;;;;;;13.18;9.55;;;13.00;90.30;;;;;;5056635;28;20025;-77
2021/10/15 00:33:31;;;;;;;14.75;9.45;;;13.00;90.40;;;;;;5074109;28;20032;-77
2021/10/15 00:35:56;;;;;;;20.58;9.73;;;13.00;90.70;;;;;;5074628;28;20361;-77
2021/10/15 00:38:22;;;;;;;16.27;10.50;;;13.00;90.50;;;;;;5056078;28;20534;-77
2021/10/15 00:40:48;;;;;;;13.90;9.57;;;13.00;90.50;;;;;;5073918;28;20039;-76
2021/10/15 00:43:14;;;;;;;14.40;8.50;;;13.00;90.50;;;;;;5056257;28;20032;-76
2021/10/15 00:45:40;;;;;;;15.73;9.88;;;13.00;90.50;;;;;;5055940;28;20012;-76
2021/10/15 00:48:06;;;;;;;17.90;9.82;;;13.00;90.90;;;;;;5055723;28;20028;-76
2021/10/15 00:50:31;;;;;;;16.88;10.23;;;13.00;90.60;;;;;;5074223;28;20111;-77
2021/10/15 00:52:57;;;;;;;17.33;10.63;;;13.00;90.60;;;;;;5073882;28;20055;-76
2021/10/15 00:55:23;;;;;;;12.48;9.82;;;12.90;90.70;;;;;;5056048;28;20546;-76
2021/10/15 00:57:48;;;;;;;14.88;9.40;;;12.90;90.70;;;;;;5056198;28;20077;-76
2021/10/15 01:00:14;;;;;;;17.75;10.65;;;12.90;90.70;;;;;;5073774;28;20024;-75
2021/10/15 01:02:43;;;;;;;16.30;9.05;;;12.90;90.80;;;;;;5054787;28;20028;-74
2021/10/15 01:05:09;;;;;;;15.18;10.57;;;12.90;90.90;;;;;;5055969;28;20023;-74
2021/10/15 01:07:37;;;;;;;14.13;9.32;;;12.90;90.90;;;;;;5073751;28;20094;-74
2021/10/15 01:10:03;;;;;;;13.52;9.38;;;12.90;91.00;;;;;;5074117;28;20033;-75
2021/10/15 01:12:29;;;;;;;14.13;10.27;;;12.90;90.90;;;;;;5073684;28;20016;-77
2021/10/15 01:14:55;;;;;;;11.65;6.80;;;12.90;91.00;;;;;;5055691;28;20020;-75
2021/10/15 01:17:21;;;;;;;15.25;9.95;;;12.90;91.20;;;;;;5073237;28;20082;-76
2021/10/15 01:19:52;;;;;;;12.98;9.50;;;12.90;91.00;;;;;;5072958;28;20434;-75
2021/10/15 01:22:17;;;;;;;17.20;11.05;;;12.90;91.00;;;;;;5072242;28;20035;-75
2021/10/15 01:24:43;;;;;;;14.00;8.20;;;12.90;91.30;;;;;;5055259;28;20028;-76
2021/10/15 01:27:10;;;;;;;17.17;11.38;;;12.90;91.10;;;;;;5072974;28;20024;-76
2021/10/15 01:29:37;;;;;;;15.38;10.40;;;12.90;91.20;;;;;;5072803;28;20488;-76
2021/10/15 01:32:09;;;;;;;15.32;10.73;;;12.90;91.20;;;;;;5055219;28;20086;-75
2021/10/15 01:34:35;;;;;;;21.05;11.30;;;12.90;91.10;;;;;;5072168;28;20412;-75
2021/10/15 01:37:00;;;;;;;18.05;10.60;;;12.90;91.10;;;;;;5055028;28;20024;-75
2021/10/15 01:39:26;;;;;;;15.02;9.15;;;12.90;91.20;;;;;;5073050;28;20016;-75
2021/10/15 01:41:52;;;;;;;17.05;10.57;;;12.90;91.20;;;;;;5072442;28;20089;-75
2021/10/15 01:44:18;;;;;;;18.67;12.07;;;12.90;91.10;;;;;;5055033;28;20116;-74
2021/10/15 01:46:44;;;;;;;15.57;11.52;;;12.90;91.60;;;;;;5054572;28;20029;-75
2021/10/15 01:49:09;;;;;;;16.40;9.43;;;12.80;91.30;;;;;;5073505;28;20021;-74
2021/10/15 01:51:35;;;;;;;19.67;11.00;;;12.90;91.40;;;;;;5071956;28;20037;-74
2021/10/15 01:54:01;;;;;;;16.17;9.93;;;12.80;91.40;;;;;;5074201;28;20064;-75
2021/10/15 01:56:26;;;;;;;16.50;11.38;;;12.90;91.30;;;;;;5075704;28;20021;-74
2021/10/15 01:58:52;;;;;;;15.00;8.95;;;12.90;91.30;;;;;;5058256;28;20028;-75
2021/10/15 02:01:17;;;;;;;17.63;12.05;;;12.90;91.30;;;;;;5081757;28;20035;-75
2021/10/15 02:03:43;;;;;;;20.23;11.90;;;12.90;91.40;;;;;;5083294;28;20036;-74
2021/10/15 02:06:09;;;;;;;15.48;10.00;;;12.90;91.40;;;;;;5080895;28;20078;-74
2021/10/15 02:08:34;;;;;;;17.80;11.57;;;12.90;91.40;;;;;;5056267;28;20028;-74
2021/10/15 02:11:00;;;;;;;17.08;10.48;;;12.90;91.50;;;;;;5071516;28;20107;-74
2021/10/15 02:13:25;;;;;;;16.05;10.07;;;12.90;91.50;;;;;;5072178;28;20025;-75
2021/10/15 02:15:51;;;;;;;18.20;11.48;;;12.90;91.50;;;;;;5072595;28;20025;-74
2021/10/15 02:18:17;;;;;;;16.00;10.52;;;12.80;91.50;;;;;;5054575;28;20486;-74
2021/10/15 02:20:44;;;;;;;17.05;11.43;;;12.90;91.60;;;;;;5071709;28;20021;-74
2021/10/15 02:23:10;;;;;;;16.73;11.95;;;12.80;91.50;;;;;;5072475;28;20025;-74
2021/10/15 02:25:35;;;;;;;15.85;12.05;;;12.80;91.70;;;;;;5072429;28;20021;-74
2021/10/15 02:28:01;;;;;;;17.10;12.82;;;12.80;91.60;;;;;;5054400;28;20028;-75
2021/10/15 02:30:28;;;;;;;16.90;10.88;;;12.80;91.60;;;;;;5054878;28;20469;-74
2021/10/15 02:32:54;;;;;;;21.77;13.07;;;12.80;91.50;;;;;;5071932;28;20464;-75
2021/10/15 02:35:20;;;;;;;19.60;11.88;;;12.80;91.70;;;;;;5072170;28;20031;-73
2021/10/15 02:37:46;;;;;;;19.80;13.40;;;12.80;91.70;;;;;;5071926;28;20020;-74
2021/10/15 02:40:13;;;;;;;16.27;11.38;;;12.80;91.80;;;;;;5054281;28;20045;-76
2021/10/15 02:42:39;;;;;;;18.65;11.35;;;12.70;91.80;;;;;;5054337;28;20536;-76
2021/10/15 02:45:06;;;;;;;16.15;10.93;;;12.70;91.70;;;;;;5072475;28;20021;-75
2021/10/15 02:47:32;;;;;;;21.15;13.35;;;12.70;91.80;;;;;;5056501;28;20027;-75
2021/10/15 02:49:57;;;;;;;16.92;11.70;;;12.70;91.80;;;;;;5076075;28;20024;-76
2021/10/15 02:52:23;;;;;;;21.05;12.20;;;12.70;91.80;;;;;;5057822;28;20489;-76
2021/10/15 02:54:49;;;;;;;20.42;12.73;;;12.70;91.90;;;;;;5075795;28;20381;-74
2021/10/15 02:57:14;;;;;;;25.65;13.27;;;12.70;91.90;;;;;;5076196;28;20028;-75
2021/10/15 02:59:40;;;;;;;18.13;12.73;;;12.70;92.10;;;;;;5057601;28;20166;-75
2021/10/15 03:02:05;;;;;;;19.67;13.60;;;12.70;92.10;;;;;;5057969;28;20039;-75
2021/10/15 03:04:33;;;;;;;20.77;12.73;;;12.60;92.10;;;;;;5076406;28;20028;-76
2021/10/15 03:06:59;;;;;;;18.88;12.32;;;12.60;92.10;;;;;;5057937;28;20027;-73
2021/10/15 03:09:24;;;;;;;16.55;12.55;;;12.60;92.10;;;;;;5057918;28;20118;-75
2021/10/15 03:11:50;;;;;;;17.80;11.23;;;12.60;92.30;;;;;;5057645;28;20032;-74
2021/10/15 03:14:16;;;;;;;19.45;11.52;;;12.60;92.00;;;;;;5057956;28;20120;-75
2021/10/15 03:16:41;;;;;;;19.90;12.35;;;12.60;92.20;;;;;;5075237;28;20103;-74
2021/10/15 03:19:07;;;;;;;14.07;9.85;;;12.60;92.10;;;;;;5057558;28;20032;-76
2021/10/15 03:21:32;;;;;;;17.73;10.75;;;12.60;92.10;;;;;;5057547;28;20033;-75
2021/10/15 03:23:58;;;;;;;21.42;12.52;;;12.60;92.00;;;;;;5057717;28;20028;-75
2021/10/15 03:26:24;;;;;;;18.08;12.25;;;12.70;92.10;;;;;;5057695;28;20421;-75
2021/10/15 03:28:49;;;;;;;20.88;13.48;;;12.60;92.10;;;;;;5075291;28;20021;-75
2021/10/15 03:31:15;;;;;;;23.83;13.95;;;12.60;92.20;;;;;;5075175;28;20028;-75
2021/10/15 03:33:40;;;;;;;19.95;13.48;;;12.60;92.40;;;;;;5075832;28;20040;-74
2021/10/15 03:36:06;;;;;;;23.05;14.30;;;12.60;92.40;;;;;;5057827;28;20491;-74
2021/10/15 03:38:32;;;;;;;19.98;13.98;;;12.60;92.50;;;;;;5075727;28;20431;-75
2021/10/15 03:40:57;;;;;;;16.40;11.75;;;12.50;92.40;;;;;;5075647;28;20025;-76
2021/10/15 03:43:23;;;;;;;18.90;12.48;;;12.60;92.50;;;;;;5058171;28;20131;-74
2021/10/15 03:45:48;;;;;;;18.95;14.63;;;12.60;92.40;;;;;;5057629;28;20020;-74
2021/10/15 03:48:14;;;;;;;21.25;13.32;;;12.60;92.30;;;;;;5077097;28;20033;-76
2021/10/15 03:50:40;;;;;;;21.65;12.75;;;12.60;92.40;;;;;;5085913;28;20029;-75
2021/10/15 03:53:05;;;;;;;22.00;12.55;;;12.60;92.40;;;;;;5071760;28;20039;-74
2021/10/15 03:55:31;;;;;;;16.65;11.85;;;12.50;92.30;;;;;;5062436;28;20059;-76
2021/10/15 03:57:56;;;;;;;22.33;13.48;;;12.60;92.30;;;;;;5074228;28;20377;-74
2021/10/15 04:00:22;;;;;;;17.90;11.52;;;12.60;92.30;;;;;;5061222;28;20016;-75
2021/10/15 04:02:48;;;;;;;21.10;12.15;;;12.60;92.30;;;;;;5057945;28;20441;-74
2021/10/15 04:05:14;;;;;;;25.17;13.50;;;12.60;92.30;;;;;;5075164;28;20492;-74
2021/10/15 04:07:39;;;;;;;20.70;13.75;;;12.60;92.50;;;;;;5074831;28;20408;-74
2021/10/15 04:10:07;;;;;;;19.80;14.15;;;12.60;92.60;;;;;;5056185;28;20366;-75
2021/10/15 04:12:33;;;;;;;22.00;13.85;;;12.60;92.60;;;;;;5056507;28;20020;-75
2021/10/15 04:14:59;;;;;;;19.60;12.68;;;12.60;92.60;;;;;;5074465;28;20056;-76
2021/10/15 04:17:25;;;;;;;20.23;13.60;;;12.50;92.60;;;;;;5056583;28;20060;-75
2021/10/15 04:19:51;;;;;;;19.15;11.88;;;12.60;92.60;;;;;;5074411;28;20028;-76
2021/10/15 04:22:17;;;;;;;19.30;13.82;;;12.50;92.50;;;;;;5056680;28;20039;-76
2021/10/15 04:24:42;;;;;;;18.45;14.18;;;12.60;92.70;;;;;;5056404;28;20055;-76
2021/10/15 04:27:08;;;;;;;21.73;12.68;;;12.60;92.70;;;;;;5056388;28;20103;-74
2021/10/15 04:29:34;;;;;;;23.02;13.95;;;12.60;92.60;;;;;;5074967;28;20025;-76
2021/10/15 04:32:00;;;;;;;19.27;12.73;;;12.60;92.90;;;;;;5056481;28;20487;-75
2021/10/15 04:34:26;;;;;;;19.25;13.70;;;12.50;92.80;;;;;;5056863;28;20055;-74
2021/10/15 04:36:51;;;;;;;19.70;14.95;;;12.60;92.90;;;;;;5056976;28;20024;-75
2021/10/15 04:39:17;;;;;;;21.65;14.63;;;12.60;93.00;;;;;;5075899;28;20430;-75
2021/10/15 04:41:43;;;;;;;19.48;12.88;;;12.60;92.90;;;;;;5077369;28;20025;-74
2021/10/15 04:44:09;;;;;;;22.73;15.50;;;12.60;92.90;;;;;;5076249;28;20020;-74
2021/10/15 04:46:34;;;;;;;21.30;13.63;;;12.60;92.90;;;;;;5056852;28;20029;-74
2021/10/15 04:49:00;;;;;;;23.35;14.95;;;12.60;92.90;;;;;;5056138;28;20025;-75
2021/10/15 04:51:26;;;;;;;22.20;14.32;;;12.60;92.90;;;;;;5074378;28;20032;-76
2021/10/15 04:53:51;;;;;;;19.90;13.48;;;12.60;92.90;;;;;;5073663;28;20024;-77
2021/10/15 04:56:17;;;;;;;24.90;14.48;;;12.60;92.80;;;;;;5073877;28;20515;-76
2021/10/15 04:58:42;;;;;;;20.33;13.48;;;12.60;92.80;;;;;;5073852;28;20035;-74
2021/10/15 05:01:08;;;;;;;25.45;13.50;;;12.70;92.80;;;;;;5055853;28;20480;-74
2021/10/15 05:03:34;;;;;;;17.20;10.77;;;12.70;92.80;;;;;;5056167;28;20039;-74
2021/10/15 05:05:59;;;;;;;24.70;15.32;;;12.70;92.60;;;;;;5075589;28;20025;-76
2021/10/15 05:08:31;;;;;;;23.58;15.85;;;12.60;92.80;;;;;;5076827;28;20120;-74
2021/10/15 05:10:56;;;;;;;27.05;16.05;;;12.60;92.90;;;;;;5076742;28;20024;-74
2021/10/15 05:13:22;;;;;;;17.92;13.52;;;12.70;93.00;;;;;;5059759;28;20025;-75
2021/10/15 05:15:48;;;;;;;22.65;14.93;;;12.60;92.90;;;;;;5056812;28;20027;-74
2021/10/15 05:18:15;;;;;;;20.83;16.20;;;12.60;93.00;;;;;;5056230;28;20086;-75
2021/10/15 05:20:42;;;;;;;24.33;15.38;;;12.60;93.30;;;;;;5073706;28;20094;-75
2021/10/15 05:23:08;;;;;;;22.73;16.25;;;12.70;93.20;;;;;;5073718;28;20097;-76
2021/10/15 05:25:34;;;;;;;28.55;15.40;;;12.60;93.30;;;;;;5073482;28;20095;-75
2021/10/15 05:28:00;;;;;;;25.33;16.20;;;12.60;93.30;;;;;;5073774;28;20024;-76
2021/10/15 05:30:26;;;;;;;25.98;17.20;;;12.60;93.50;;;;;;5055517;28;20052;-75
2021/10/15 05:32:53;;;;;;;25.85;16.42;;;12.60;93.60;;;;;;5055869;28;20028;-74
2021/10/15 05:35:19;;;;;;;24.77;15.88;;;12.60;93.50;;;;;;5057576;28;20121;-75
2021/10/15 05:37:45;;;;;;;23.63;16.58;;;12.60;93.60;;;;;;5077063;28;20028;-75
2021/10/15 05:40:11;;;;;;;24.55;13.48;;;12.60;93.70;;;;;;5096564;28;20039;-75
2021/10/15 05:42:42;;;;;;;20.15;14.60;;;12.60;93.50;;;;;;5087184;28;20033;-76
2021/10/15 05:45:08;;;;;;;23.05;16.48;;;12.60;93.60;;;;;;5074768;28;20025;-75
2021/10/15 05:47:34;;;;;;;26.48;19.73;;;12.60;93.70;;;;;;5073552;28;20028;-76
2021/10/15 05:50:00;;;;;;;25.15;18.60;;;12.60;93.90;;;;;;5072945;28;20021;-75
2021/10/15 05:52:32;;;;;;;26.27;17.88;;;12.60;93.90;;;;;;5073277;28;20104;-75
2021/10/15 05:55:05;;;;;;;23.63;17.08;;;12.60;93.90;;;;;;5054951;28;20384;-73
2021/10/15 05:59:59;;;;;;;28.52;18.17;;;12.60;93.90;;;;;;5073032;28;20028;-76
2021/10/15 06:02:31;;;;;;;28.88;17.80;;;12.60;94.10;;;;;;5076569;28;20051;-75
2021/10/15 06:15:54;;;;;;;29.50;18.25;;;12.60;94.10;;;;;;5069916;28;20374;-76
2021/10/15 06:18:21;;;;;;;29.05;19.05;;;12.70;94.20;;;;;;5071103;28;20020;-75
2021/10/15 06:20:49;;;;;;;25.75;16.83;;;12.60;94.20;;;;;;5054829;28;20024;-76
2021/10/15 06:23:16;;;;;;;32.03;18.50;;;12.60;94.10;;;;;;5058857;28;20036;-76
2021/10/15 06:25:42;;;;;;;26.90;20.23;;;12.60;94.20;;;;;;5076899;28;20028;-76
2021/10/15 06:28:08;;;;;;;25.52;19.25;;;12.70;94.20;;;;;;5076946;28;20146;-76
2021/10/15 06:30:34;;;;;;;24.77;17.25;;;12.60;94.20;;;;;;5058636;28;20469;-76
2021/10/15 06:33:00;;;;;;;29.27;18.42;;;12.70;94.20;;;;;;5058385;28;20028;-76
2021/10/15 06:35:26;;;;;;;34.03;19.35;;;12.70;94.30;;;;;;5058448;28;20392;-76
2021/10/15 06:37:52;;;;;;;26.88;18.95;;;12.80;94.10;;;;;;5076551;28;20047;-76
2021/10/15 06:40:19;;;;;;;32.03;21.33;;;12.80;94.20;;;;;;5076425;28;20021;-75
2021/10/15 06:42:45;;;;;;;34.72;24.70;;;12.80;94.40;;;;;;5058213;28;20415;-76
2021/10/15 06:45:11;;;;;;;40.63;24.00;;;12.80;94.80;;;;;;5075987;28;20416;-75
2021/10/15 06:47:36;;;;;;;36.88;25.80;;;12.80;94.90;;;;;;5076024;28;20020;-74
2021/10/15 06:50:03;;;;;;;38.20;25.42;;;12.80;95.20;;;;;;5057864;28;20107;-76
2021/10/15 06:52:36;;;;;;;37.70;27.98;;;12.70;95.50;;;;;;5057721;28;20021;-75
2021/10/15 06:55:02;;;;;;;41.25;25.40;;;12.70;95.70;;;;;;5057371;28;20031;-76
2021/10/15 06:57:27;;;;;;;29.20;21.38;;;12.70;95.80;;;;;;5075273;28;20400;-75
2021/10/15 06:59:53;;;;;;;37.25;24.38;;;12.70;95.80;;;;;;5075352;28;20021;-75
2021/10/15 07:02:18;;;;;;;16.48;10.02;;;12.70;95.80;;;;;;5057081;28;20523;-75
2021/10/15 07:04:44;;;;;;;38.80;24.75;;;12.70;94.60;;;;;;5057778;28;20059;-75
2021/10/15 07:07:10;;;;;;;30.65;21.13;;;12.80;95.10;;;;;;5057658;28;20109;-74
2021/10/15 07:09:35;;;;;;;16.67;10.18;;;12.80;95.60;;;;;;5076032;28;20020;-74
2021/10/15 07:12:04;;;;;;;11.48;7.63;;;12.80;95.20;;;;;;5075541;28;20051;-75
2021/10/15 07:14:29;;;;;;;11.40;6.05;;;12.80;95.00;;;;;;5075665;28;20024;-74
2021/10/15 07:16:55;;;;;;;7.20;4.53;;;12.70;94.90;;;;;;5075964;28;20031;-74
2021/10/15 07:19:21;;;;;;;5.72;3.00;;;12.70;94.90;;;;;;5075820;28;20021;-75
2021/10/15 07:21:47;;;;;;;5.97;2.42;;;12.60;94.80;;;;;;5077804;28;20047;-73
2021/10/15 07:24:12;;;;;;;4.38;2.15;;;12.60;94.80;;;;;;5083766;28;20028;-73
2021/10/15 07:26:38;;;;;;;3.67;1.60;;;12.60;94.80;;;;;;5087280;28;20055;-73
2021/10/15 07:29:05;;;;;;;3.38;1.77;;;12.60;94.60;;;;;;5064360;28;20024;-74
2021/10/15 07:31:31;;;;;;;3.63;1.23;;;12.60;93.40;;;;;;5076058;28;20029;-74
2021/10/15 07:33:57;;;;;;;3.38;1.00;;;12.50;94.00;;;;;;5056207;28;20030;-73
2021/10/15 07:36:22;;;;;;;2.05;0.50;;;12.50;93.70;;;;;;5057380;28;20017;-75
2021/10/15 07:38:48;;;;;;;1.40;0.55;;;12.40;93.80;;;;;;5075224;28;20388;-74
2021/10/15 07:41:14;;;;;;;3.28;1.60;;;12.40;93.60;;;;;;5074704;28;20431;-75
2021/10/15 07:43:39;;;;;;;4.50;0.82;;;12.40;93.60;;;;;;5057042;28;20016;-75
2021/10/15 07:46:05;;;;;;;2.95;0.55;;;12.40;93.70;;;;;;5056762;28;20025;-75
2021/10/15 07:48:31;;;;;;;4.43;0.70;;;12.30;93.50;;;;;;5074888;28;20079;-76
2021/10/15 07:50:57;;;;;;;4.72;0.60;;;12.30;93.50;;;;;;5056445;28;20025;-75
2021/10/15 07:53:23;;;;;;;4.28;1.30;;;12.20;93.50;;;;;;5074671;28;20039;-75
2021/10/15 07:55:49;;;;;;;5.75;2.15;;;12.20;93.80;;;;;;5056771;28;20120;-74
2021/10/15 07:58:15;;;;;;;4.22;0.90;;;12.20;93.90;;;;;;5074224;28;20103;-75
2021/10/15 08:00:41;;;;;;;48.05;28.02;;;12.20;94.00;;;;;;5074864;28;20496;-75
2021/10/15 08:03:07;;;;;;;5.18;2.15;;;12.20;94.00;;;;;;5074919;28;20024;-75
2021/10/15 08:05:33;;;;;;;4.75;0.70;;;12.10;94.00;;;;;;5079156;28;20108;-74
2021/10/15 08:07:59;;;;;;;6.82;1.23;;;12.10;93.90;;;;;;5066731;28;20024;-74
2021/10/15 08:10:25;;;;;;;6.03;1.30;;;12.10;93.80;;;;;;5056664;28;20101;-76
2021/10/15 08:12:50;;;;;;;5.43;1.30;;;12.10;94.30;;;;;;5074097;28;20024;-75
2021/10/15 08:15:17;;;;;;;3.50;1.08;;;12.10;94.20;;;;;;5056268;28;20120;-75
2021/10/15 08:17:44;;;;;;;3.05;0.98;;;12.10;94.10;;;;;;5056172;28;20477;-76
2021/10/15 08:20:11;;;;;;;7.63;1.77;;;12.10;94.20;;;;;;5073870;28;20020;-75
2021/10/15 08:22:36;;;;;;;6.15;1.08;;;12.10;94.10;;;;;;5055957;28;20028;-75
2021/10/15 08:25:03;;;;;;;7.65;0.90;;;12.20;94.10;;;;;;5073794;28;20037;-74
2021/10/15 08:27:29;;;;;;;5.25;0.75;;;12.20;94.30;;;;;;5055856;28;20115;-75
2021/10/15 08:29:54;;;;;;;4.85;1.40;;;12.30;94.20;;;;;;5055524;28;20067;-75
2021/10/15 08:32:20;;;;;;;5.10;0.75;;;12.30;94.20;;;;;;5055689;28;20043;-73
2021/10/15 08:34:46;;;;;;;7.15;1.00;;;12.30;94.30;;;;;;5074321;28;20028;-75
2021/10/15 08:37:11;;;;;;;3.03;0.90;;;12.40;94.30;;;;;;5055698;28;20449;-75
2021/10/15 08:39:37;;;;;;;6.63;1.27;;;12.40;94.40;;;;;;5073583;28;20157;-75
2021/10/15 08:42:03;;;;;;;6.30;1.38;;;12.40;94.50;;;;;;5073667;28;20086;-76
2021/10/15 08:44:41;;;;;;;4.63;1.70;;;12.30;94.40;;;;;;5072523;28;20095;-76
2021/10/15 08:47:07;;;;;;;4.63;1.38;;;12.30;94.80;;;;;;5073629;28;20031;-75
2021/10/15 08:49:33;;;;;;;7.95;1.50;;;12.30;94.60;;;;;;5073741;28;20108;-75
2021/10/15 08:51:59;;;;;;;4.05;1.13;;;12.40;94.60;;;;;;5073308;28;20151;-76
2021/10/15 08:54:25;;;;;;;5.25;1.52;;;12.50;94.10;;;;;;5055788;28;20119;-76
2021/10/15 08:56:50;;;;;;;7.97;1.33;;;12.60;94.10;;;;;;5056008;28;20031;-76
2021/10/15 08:59:20;;;;;;;10.50;1.73;;;12.80;94.10;;;;;;5073727;28;20025;-76
2021/10/15 09:01:49;;;;;;;15.73;6.93;;;13.00;93.60;;;;;;5055595;28;20020;-75
2021/10/15 09:04:19;;;;;;;10.93;3.95;;;13.10;93.20;;;;;;5073529;28;20075;-76
2021/10/15 09:06:48;;;;;;;;;;;13.20;93.20;;;;;;5056145;28;20090;-75
2021/10/15 09:09:25;;;;;;;8.43;1.55;;;13.20;92.70;;;;;;5057575;28;19908;-75
2021/10/15 09:11:51;;;;;;;9.88;2.22;;;13.20;92.50;;;;;;5084664;28;20035;-75
2021/10/15 09:14:24;;;;;;;12.23;2.08;;;13.10;92.60;;;;;;5090499;28;20056;-76
2021/10/15 09:17:16;;;;;;;6.70;1.50;;;13.20;92.60;;;;;;5063883;28;20105;-76
2021/10/15 09:19:50;;;;;;;10.35;2.22;;;13.20;92.80;;;;;;5055684;28;20020;-76
2021/10/15 09:22:21;;;;;;;10.98;2.78;;;13.20;92.70;;;;;;5072827;28;20021;-76
2021/10/15 09:25:07;;;;;;;;;;;13.20;93.00;;;;;;5073868;28;20024;-76
2021/10/15 09:27:38;;;;;;;12.27;1.90;;;13.20;92.70;;;;;;5055566;28;19904;-75
2021/10/15 09:30:16;;;;;;;10.60;1.90;;;13.40;92.80;;;;;;5073315;28;20487;-76
2021/10/15 09:32:54;;;;;;;11.98;2.13;;;13.50;92.80;;;;;;5055303;28;20029;-75
2021/10/15 09:35:23;;;;;;;10.55;1.75;;;13.60;92.60;;;;;;5072897;28;20036;-76
2021/10/15 09:37:51;;;;;;;16.10;2.65;;;13.80;92.40;;;;;;5072764;28;20017;-75
2021/10/15 09:40:21;;;;;;;12.35;1.98;;;13.90;91.60;;;;;;5072699;28;20073;-74
2021/10/15 09:42:59;;;;;;;7.85;1.98;;;13.90;91.20;;;;;;5072792;28;20489;-75
2021/10/15 09:45:34;;;;;;;5.90;1.83;;;13.90;92.10;;;;;;5055079;28;20024;-75
2021/10/15 09:48:03;;;;;;;7.38;1.75;;;14.30;91.80;;;;;;5072734;28;20044;-76
2021/10/15 09:50:34;;;;;;;7.93;1.63;;;14.80;90.80;;;;;;5072595;28;20024;-75
2021/10/15 09:53:02;;;;;;;19.13;7.82;;;15.30;90.30;;;;;;5054622;28;20086;-76
2021/10/15 09:55:36;;;;;;;7.40;2.25;;;15.70;86.80;;;;;;5054551;28;20025;-75
2021/10/15 09:58:11;;;;;;;10.60;1.60;;;16.00;85.80;;;;;;5054489;28;20021;-75
2021/10/15 10:00:38;;;;;;;9.57;2.05;;;16.20;84.90;;;;;;5055246;28;20025;-76
2021/10/15 10:03:04;;;;;;;10.52;1.67;;;16.50;84.40;;;;;;5054907;28;20032;-74
2021/10/15 10:05:30;;;;;;;6.68;1.33;;;16.70;80.40;;;;;;5056952;28;20370;-75
2021/10/15 10:07:56;;;;;;;10.93;1.67;;;16.60;79.20;;;;;;5080304;28;20075;-76
2021/10/15 10:10:25;;;;;;;9.38;2.00;;;16.30;81.10;;;;;;5059977;28;20469;-76
2021/10/15 10:12:52;;;;;;;5.43;1.50;;;16.10;83.40;;;;;;5054990;28;20032;-76
2021/10/15 10:15:20;;;;;;;11.80;2.00;;;16.20;82.20;;;;;;5072348;28;20033;-77
2021/10/15 10:17:51;;;;;;;8.35;1.88;;;16.40;81.90;;;;;;5054848;28;20012;-77
2021/10/15 10:20:23;;;;;;;7.32;2.00;;;16.60;82.40;;;;;;5054447;28;20032;-75
2021/10/15 10:23:05;;;;;;;10.35;1.70;;;16.70;81.70;;;;;;5054444;28;20055;-77
2021/10/15 10:25:31;;;;;;;9.57;1.73;;;16.70;81.50;;;;;;5054651;28;20051;-76
2021/10/15 10:28:09;;;;;;;6.97;1.85;;;16.50;80.00;;;;;;5054366;28;20094;-76
2021/10/15 10:30:38;;;;;;;9.60;1.92;;;16.30;80.80;;;;;;5073116;28;20036;-77
2021/10/15 10:33:04;;;;;;;7.15;1.27;;;16.60;81.70;;;;;;5054181;28;20035;-77
2021/10/15 10:35:30;;;;;;;8.50;1.55;;;16.90;83.10;;;;;;5054237;28;20025;-77
2021/10/15 10:38:19;;;;;;;7.35;1.52;;;17.20;81.60;;;;;;5054189;28;20029;-76
2021/10/15 10:40:59;;;;;;;10.30;2.20;;;17.60;79.30;;;;;;5059460;28;20032;-76
2021/10/15 10:43:29;;;;;;;15.82;2.65;;;17.80;75.10;;;;;;5072476;28;20029;-77
2021/10/15 10:46:12;;;;;;;10.88;2.22;;;17.70;75.30;;;;;;5054263;28;20113;-78
2021/10/15 10:48:47;;;;;;;7.78;1.30;;;17.50;72.40;;;;;;5072657;28;20017;-76
2021/10/15 10:51:23;;;;;;;9.07;1.27;;;17.30;72.90;;;;;;5071833;28;20370;-77
2021/10/15 10:54:07;;;;;;;11.63;1.85;;;17.30;73.10;;;;;;5054600;28;20029;-76
2021/10/15 10:56:51;;;;;;;7.70;1.50;;;17.10;74.00;;;;;;5060098;28;20017;-75
2021/10/15 10:59:20;;;;;;;7.15;1.27;;;17.10;74.50;;;;;;5094142;28;20013;-76
2021/10/15 11:02:03;;;;;;;10.50;1.55;;;17.40;76.00;;;;;;5075944;28;20058;-76
2021/10/15 11:04:51;;;;;;;8.25;1.50;;;17.60;71.70;;;;;;5084866;28;20084;-77
2021/10/15 11:07:16;;;;;;;8.15;1.83;;;17.80;72.30;;;;;;5055099;28;20056;-77
2021/10/15 11:09:43;;;;;;;6.57;1.58;;;18.00;68.60;;;;;;5057776;28;20032;-77
2021/10/15 11:12:21;;;;;;;4.95;1.48;;;18.10;68.30;;;;;;5076065;28;20032;-76
2021/10/15 11:14:56;;;;;;;8.95;2.03;;;18.40;72.30;;;;;;5057834;28;20028;-77
2021/10/15 11:17:35;;;;;;;8.75;1.25;;;18.50;77.90;;;;;;5076090;28;20028;-77
2021/10/15 11:20:31;;;;;;;9.48;2.75;;;18.60;74.60;;;;;;5057826;28;20058;-77
2021/10/15 11:23:03;;;;;;;6.65;1.23;;;18.60;73.20;;;;;;5059571;28;20067;-77
2021/10/15 11:25:40;;;;;;;7.95;1.55;;;18.30;77.50;;;;;;5075622;28;20350;-77
2021/10/15 11:28:20;;;;;;;6.35;1.70;;;17.90;79.70;;;;;;5057861;28;20029;-77
2021/10/15 11:30:48;;;;;;;6.72;1.50;;;17.50;69.60;;;;;;5058014;28;20115;-77
2021/10/15 11:33:15;;;;;;;10.05;3.60;;;17.10;76.60;;;;;;5075339;28;20040;-77
2021/10/15 11:35:44;;;;;;;5.90;1.35;;;16.90;68.90;;;;;;5075101;28;20048;-77
2021/10/15 11:38:22;;;;;;;9.90;1.70;;;17.00;70.60;;;;;;5075602;28;20029;-76
2021/10/15 11:40:53;;;;;;;6.88;1.25;;;17.20;69.90;;;;;;5075512;28;20036;-76
2021/10/15 11:43:37;;;;;;;10.77;1.65;;;17.20;67.20;;;;;;5064766;28;20031;-78
2021/10/15 11:46:09;;;;;;;13.00;1.60;;;17.20;73.40;;;;;;5083524;28;20025;-78
2021/10/15 11:48:40;;;;;;;8.73;1.67;;;17.00;76.70;;;;;;5065596;28;20108;-77
2021/10/15 11:51:15;;;;;;;7.55;1.77;;;16.70;71.20;;;;;;5082302;28;20021;-77
2021/10/15 11:53:43;;;;;;;9.68;1.80;;;16.50;78.70;;;;;;5080337;28;20488;-77
2021/10/15 11:56:15;;;;;;;5.97;1.60;;;16.50;79.90;;;;;;5060854;28;20028;-76
2021/10/15 11:58:55;;;;;;;8.48;1.80;;;16.80;75.30;;;;;;5061329;28;20081;-77
2021/10/15 12:01:29;;;;;;;9.40;1.63;;;17.30;67.30;;;;;;5058344;28;20112;-76
2021/10/15 12:03:59;;;;;;;9.82;1.70;;;17.60;67.30;;;;;;5076576;28;20445;-77
2021/10/15 12:06:32;;;;;;;7.20;1.50;;;17.80;60.40;;;;;;5063134;28;20017;-77
2021/10/15 12:09:06;;;;;;;7.57;1.30;;;18.10;77.10;;;;;;5083121;28;20021;-77
2021/10/15 12:11:37;;;;;;;7.25;1.45;;;18.30;77.90;;;;;;5057302;28;20145;-77
2021/10/15 12:14:06;;;;;;;13.93;1.50;;;18.70;73.40;;;;;;5075166;28;20033;-76
2021/10/15 12:16:42;;;;;;;8.73;1.60;;;19.00;74.40;;;;;;5056904;28;20085;-76
2021/10/15 12:19:09;;;;;;;10.00;1.60;;;19.20;58.30;;;;;;5056873;28;20025;-77
2021/10/15 12:21:34;;;;;;;6.13;1.48;;;19.00;59.50;;;;;;5057245;28;20423;-78
2021/10/15 12:24:00;;;;;;;6.78;1.52;;;18.60;62.50;;;;;;5074518;28;20021;-77
2021/10/15 12:26:26;;;;;;;14.00;2.50;;;18.30;67.20;;;;;;5056729;28;20029;-76
2021/10/15 12:28:52;;;;;;;12.50;2.28;;;18.00;67.60;;;;;;5074780;28;20074;-76
2021/10/15 12:31:31;;;;;;;12.38;2.67;;;17.50;65.50;;;;;;5058033;28;20020;-76
2021/10/15 12:34:14;;;;;;;10.45;1.70;;;17.20;70.40;;;;;;5056958;28;20040;-76
2021/10/15 12:36:41;;;;;;;9.43;1.65;;;17.00;72.70;;;;;;5074499;28;20380;-77
2021/10/15 12:39:24;;;;;;;16.25;2.28;;;16.80;65.10;;;;;;5074736;28;20083;-77
2021/10/15 12:41:53;;;;;;;10.13;1.88;;;16.60;73.50;;;;;;5057682;28;20362;-77
2021/10/15 12:44:29;;;;;;;15.88;3.17;;;16.70;67.80;;;;;;5060604;28;20020;-77
2021/10/15 12:47:00;;;;;;;11.80;2.00;;;16.70;66.20;;;;;;5071151;28;20051;-77
2021/10/15 12:49:27;;;;;;;12.50;2.45;;;17.00;65.60;;;;;;5093643;28;20046;-77
2021/10/15 12:51:53;;;;;;;13.43;2.42;;;17.40;71.30;;;;;;5086884;28;20086;-77
2021/10/15 12:54:42;;;;;;;10.68;1.50;;;17.80;62.60;;;;;;5056940;28;20024;-77